createdAt,value
2022-08-05T00:01:35.938Z,100711.02
2022-08-05T00:04:17.890Z,100714.13
2022-08-05T00:06:47.244Z,100713.00
2022-08-05T00:09:20.318Z,100712.59
2022-08-05T00:11:55.638Z,100699.41
2022-08-05T00:14:27.594Z,100714.79
2022-08-05T00:16:57.913Z,100710.56
2022-08-05T00:19:33.322Z,100713.55
2022-08-05T00:22:13.967Z,100711.35
2022-08-05T00:24:45.869Z,100713.23
2022-08-05T00:27:35.646Z,100711.52
2022-08-05T00:30:05.619Z,100712.93
2022-08-05T00:32:39.469Z,100718.15
2022-08-05T00:35:09.150Z,100705.08
2022-08-05T00:37:53.316Z,100716.41
2022-08-05T00:40:27.390Z,100715.88
2022-08-05T00:42:58.573Z,100716.04
2022-08-05T00:45:38.065Z,100714.25
2022-08-05T00:48:09.312Z,100716.11
2022-08-05T00:50:44.381Z,100714.59
2022-08-05T00:54:00.867Z,100712.16
2022-08-05T00:56:07.835Z,100710.64
2022-08-05T00:58:36.933Z,100711.80
2022-08-05T01:01:08.651Z,100692.52
2022-08-05T01:03:39.262Z,100704.44
2022-08-05T01:06:14.046Z,100701.92
2022-08-05T01:08:44.749Z,100700.05
2022-08-05T01:11:37.794Z,100696.28
2022-08-05T01:14:15.412Z,100698.80
2022-08-05T01:16:55.337Z,100697.05
2022-08-05T01:19:36.565Z,100692.36
2022-08-05T01:22:27.707Z,100680.24
2022-08-05T01:25:17.286Z,100693.66
2022-08-05T01:28:18.060Z,100691.08
2022-08-05T01:30:55.311Z,100692.00
2022-08-05T01:33:26.423Z,100687.21
2022-08-05T01:35:57.605Z,100681.49
2022-08-05T01:38:29.191Z,100684.45
2022-08-05T01:41:00.098Z,100688.11
2022-08-05T01:43:32.259Z,100658.85
2022-08-05T01:46:07.370Z,100684.14
2022-08-05T01:48:49.535Z,100685.14
2022-08-05T01:51:19.311Z,100683.40
2022-08-05T01:53:56.974Z,100678.49
2022-08-05T01:58:13.860Z,100679.59
2022-08-05T01:59:23.191Z,100673.52
2022-08-05T02:01:55.504Z,100675.45
2022-08-05T02:04:26.649Z,100676.73
2022-08-05T02:06:57.859Z,100674.61
2022-08-05T02:09:26.832Z,100671.95
2022-08-05T02:12:06.717Z,100666.55
2022-08-05T02:14:52.786Z,100667.84
2022-08-05T02:18:28.357Z,100667.23
2022-08-05T02:20:30.752Z,100664.29
2022-08-05T02:23:11.133Z,100662.81
2022-08-05T02:25:49.111Z,100660.23
2022-08-05T02:28:31.247Z,100660.91
2022-08-05T02:31:14.857Z,100657.81
2022-08-05T02:34:12.059Z,100655.30
2022-08-05T02:36:44.117Z,100650.57
2022-08-05T02:39:13.443Z,100651.10
2022-08-05T02:42:00.930Z,100653.88
2022-08-05T02:44:32.244Z,100652.30
2022-08-05T02:47:02.209Z,100647.20
2022-08-05T02:49:37.750Z,100645.30
2022-08-05T02:52:29.798Z,100641.80
2022-08-05T02:55:05.431Z,100643.30
2022-08-05T02:58:09.833Z,100645.22
2022-08-05T03:00:27.736Z,100643.20
2022-08-05T03:02:57.663Z,100643.24
2022-08-05T03:06:56.095Z,100640.19
2022-08-05T03:08:14.935Z,100638.41
2022-08-05T03:11:01.281Z,100637.01
2022-08-05T03:13:52.094Z,100635.42
2022-08-05T03:16:21.988Z,100636.70
2022-08-05T03:18:51.377Z,100634.35
2022-08-05T03:21:19.934Z,100632.52
2022-08-05T03:23:50.353Z,100627.73
2022-08-05T03:26:31.122Z,100629.14
2022-08-05T03:29:00.967Z,100630.09
2022-08-05T03:31:55.949Z,100631.70
2022-08-05T03:34:18.152Z,100631.47
2022-08-05T03:36:46.334Z,100630.84
2022-08-05T03:39:20.201Z,100633.95
2022-08-05T03:41:56.536Z,100635.38
2022-08-05T03:44:25.342Z,100635.08
2022-08-05T03:46:57.250Z,100638.52
2022-08-05T03:49:30.881Z,100634.56
2022-08-05T03:52:49.384Z,100630.11
2022-08-05T03:56:05.357Z,100629.50
2022-08-05T03:58:11.252Z,100629.79
2022-08-05T04:00:41.979Z,100629.48
2022-08-05T04:03:15.036Z,100630.39
2022-08-05T04:05:59.269Z,100625.14
2022-08-05T04:08:36.513Z,100628.67
2022-08-05T04:11:08.581Z,100629.23
2022-08-05T04:13:50.647Z,100630.14
2022-08-05T04:16:24.959Z,100630.42
2022-08-05T04:19:00.623Z,100630.81
2022-08-05T04:22:09.624Z,100627.80
2022-08-05T04:24:19.204Z,100625.84
2022-08-05T04:26:51.056Z,100625.33
2022-08-05T04:29:19.671Z,100629.06
2022-08-05T04:31:48.333Z,100626.81
2022-08-05T04:34:32.722Z,100629.77
2022-08-05T04:37:03.562Z,100630.73
2022-08-05T04:39:32.422Z,100625.86
2022-08-05T04:42:04.050Z,100624.14
2022-08-05T04:44:32.246Z,100621.73
2022-08-05T04:47:09.400Z,100619.17
2022-08-05T04:50:02.133Z,100615.83
2022-08-05T04:52:29.245Z,100613.09
2022-08-05T04:55:13.803Z,100615.26
2022-08-05T04:57:47.996Z,100611.27
2022-08-05T05:00:23.235Z,100614.36
2022-08-05T05:02:54.930Z,100615.70
2022-08-05T05:05:28.879Z,100612.91
2022-08-05T05:08:05.557Z,100611.16
2022-08-05T05:10:47.232Z,100603.39
2022-08-05T05:13:24.059Z,100617.27
2022-08-05T05:15:56.796Z,100621.41
2022-08-05T05:18:33.416Z,100622.33
2022-08-05T05:21:06.570Z,100623.24
2022-08-05T05:24:01.923Z,100628.06
2022-08-05T05:26:28.778Z,100629.91
2022-08-05T05:29:14.388Z,100630.27
2022-08-05T05:31:43.316Z,100631.24
2022-08-05T05:34:15.442Z,100633.86
2022-08-05T05:36:43.895Z,100636.73
2022-08-05T05:39:15.032Z,100639.36
2022-08-05T05:41:54.260Z,100646.80
2022-08-05T05:44:36.766Z,100645.49
2022-08-05T05:47:21.255Z,100642.35
2022-08-05T05:49:56.971Z,100628.80
2022-08-05T05:52:34.537Z,100639.45
2022-08-05T05:55:13.400Z,100638.50
2022-08-05T05:57:52.409Z,100640.38
2022-08-05T06:00:27.787Z,100637.02
2022-08-05T06:03:01.796Z,100637.46
2022-08-05T06:05:29.850Z,100632.38
2022-08-05T06:08:01.902Z,100635.78
2022-08-05T06:10:36.285Z,100619.43
2022-08-05T06:13:05.401Z,100628.85
2022-08-05T06:16:28.159Z,100629.98
2022-08-05T06:18:31.060Z,100626.30
2022-08-05T06:21:00.274Z,100624.81
2022-08-05T06:23:43.669Z,100625.02
2022-08-05T06:26:21.439Z,100624.81
2022-08-05T06:29:00.238Z,100624.69
2022-08-05T06:31:32.163Z,100629.77
2022-08-05T06:34:07.550Z,100630.15
2022-08-05T06:36:57.349Z,100632.77
2022-08-05T06:39:27.219Z,100626.67
2022-08-05T06:42:04.029Z,100623.67
2022-08-05T06:44:32.382Z,100622.04
2022-08-05T06:47:02.252Z,100618.88
2022-08-05T06:49:59.885Z,100619.86
2022-08-05T06:52:37.152Z,100620.91
2022-08-05T06:55:07.595Z,100615.33
2022-08-05T06:57:57.144Z,100611.73
2022-08-05T07:00:25.550Z,100610.71
2022-08-05T07:02:54.218Z,100608.96
2022-08-05T07:05:31.791Z,100610.67
2022-08-05T07:08:10.678Z,100615.14
2022-08-05T07:10:52.729Z,100613.89
2022-08-05T07:13:57.947Z,100613.72
2022-08-05T07:18:00.690Z,100588.05
2022-08-05T07:22:29.120Z,100609.89
2022-08-05T07:25:23.686Z,100611.08
2022-08-05T07:27:57.585Z,100611.05
2022-08-05T07:30:39.194Z,100610.58
2022-08-05T07:33:16.672Z,100607.20
2022-08-05T07:36:05.059Z,100595.12
2022-08-05T07:38:43.684Z,100609.31
2022-08-05T07:42:13.277Z,100612.09
2022-08-05T07:44:14.245Z,100614.21
2022-08-05T07:46:49.601Z,100612.82
2022-08-05T07:49:20.820Z,100613.72
2022-08-05T07:51:54.182Z,100614.63
2022-08-05T07:54:30.980Z,100608.49
2022-08-05T07:57:41.997Z,100602.98
2022-08-05T07:59:50.776Z,100601.19
2022-08-05T08:02:26.732Z,100597.43
2022-08-05T08:05:00.099Z,100596.55
2022-08-05T08:07:39.559Z,100596.04
2022-08-05T08:10:20.733Z,100590.77
2022-08-05T08:12:50.152Z,100589.63
2022-08-05T08:15:28.075Z,100589.30
2022-08-05T08:18:13.924Z,100591.35
2022-08-05T08:21:00.236Z,100586.83
2022-08-05T08:24:02.127Z,100592.14
2022-08-05T08:26:17.954Z,100593.99
2022-08-05T08:29:21.666Z,100594.04
2022-08-05T08:31:50.232Z,100597.15
2022-08-05T08:34:30.899Z,100595.20
2022-08-05T08:37:03.285Z,100593.30
2022-08-05T08:39:37.496Z,100594.92
2022-08-05T08:42:27.566Z,100590.71
2022-08-05T08:45:22.914Z,100592.02
2022-08-05T08:48:10.711Z,100592.48
2022-08-05T08:51:03.793Z,100592.39
2022-08-05T08:53:35.677Z,100590.00
2022-08-05T08:56:06.301Z,100586.27
2022-08-05T08:58:43.700Z,100578.65
2022-08-05T09:01:18.915Z,100580.58
2022-08-05T09:04:02.537Z,100566.42
2022-08-05T09:06:36.212Z,100576.85
2022-08-05T09:09:04.769Z,100577.39
2022-08-05T09:11:52.980Z,100573.60
2022-08-05T09:14:56.727Z,100573.23
2022-08-05T09:17:40.579Z,100572.27
2022-08-05T09:20:05.858Z,100570.24
2022-08-05T09:23:05.431Z,100570.81
2022-08-05T09:26:01.756Z,100570.59
2022-08-05T09:28:31.866Z,100567.42
2022-08-05T09:32:39.009Z,100562.22
2022-08-05T09:34:00.304Z,100558.22
2022-08-05T09:36:56.381Z,100550.45
2022-08-05T09:39:56.159Z,100550.33
2022-08-05T09:42:28.156Z,100554.23
2022-08-05T09:45:17.605Z,100549.31
2022-08-05T09:47:56.337Z,100547.02
2022-08-05T09:50:38.679Z,100547.98
2022-08-05T09:53:18.359Z,100530.74
2022-08-05T09:55:56.369Z,100544.11
2022-08-05T09:58:38.901Z,100540.24
2022-08-05T10:01:14.601Z,100544.59
2022-08-05T10:04:09.989Z,100539.48
2022-08-05T10:06:54.633Z,100541.08
2022-08-05T10:09:28.221Z,100541.03
2022-08-05T10:12:30.969Z,100535.39
2022-08-05T10:15:17.095Z,100532.61
2022-08-05T10:18:17.309Z,100532.98
2022-08-05T10:20:52.032Z,100530.21
2022-08-05T10:23:55.664Z,100525.47
2022-08-05T10:26:19.897Z,100525.77
2022-08-05T10:29:00.158Z,100518.92
2022-08-05T10:32:51.845Z,100519.86
2022-08-05T10:34:16.981Z,100519.59
2022-08-05T10:36:45.813Z,100505.17
2022-08-05T10:39:25.106Z,100519.59
2022-08-05T10:42:18.888Z,100513.65
2022-08-05T10:45:01.432Z,100500.16
2022-08-05T10:47:34.639Z,100505.14
2022-08-05T10:50:32.965Z,100500.79
2022-08-05T10:52:58.762Z,100495.05
2022-08-05T10:55:27.821Z,100488.29
2022-08-05T10:58:12.109Z,100487.35
2022-08-05T11:00:55.101Z,100482.84
2022-08-05T11:03:29.426Z,100479.94
2022-08-05T11:06:30.797Z,100478.60
2022-08-05T11:09:24.256Z,100484.29
2022-08-05T11:12:24.915Z,100480.31
2022-08-05T11:15:59.044Z,100478.22
2022-08-05T11:18:26.115Z,100469.28
2022-08-05T11:20:54.814Z,100476.02
2022-08-05T11:24:04.856Z,100474.85
2022-08-05T11:26:43.289Z,100473.88
2022-08-05T11:29:35.677Z,100469.94
2022-08-05T11:32:28.292Z,100469.66
2022-08-05T11:34:57.700Z,100471.23
2022-08-05T11:38:29.209Z,100467.79
2022-08-05T11:41:14.460Z,100470.52
2022-08-05T11:44:08.445Z,100464.66
2022-08-05T11:47:11.000Z,100467.03
2022-08-05T11:49:49.745Z,100464.15
2022-08-05T11:52:29.634Z,100461.09
2022-08-05T11:55:07.107Z,100459.34
2022-08-05T11:58:08.260Z,100454.38
2022-08-05T12:00:29.190Z,100463.64
2022-08-05T12:03:15.047Z,100460.31
2022-08-05T12:05:43.718Z,100457.06
2022-08-05T12:08:17.970Z,100448.07
2022-08-05T12:10:49.819Z,100449.79
2022-08-05T12:13:27.877Z,100450.16
2022-08-05T12:16:15.363Z,100445.11
2022-08-05T12:18:49.449Z,100441.60
2022-08-05T12:24:11.033Z,100434.61
2022-08-05T12:26:44.283Z,100432.12
2022-08-05T12:29:16.406Z,100420.49
2022-08-05T12:31:57.172Z,100409.96
2022-08-05T12:34:31.478Z,100405.98
2022-08-05T12:37:07.614Z,100408.70
2022-08-05T12:47:19.395Z,100405.72
2022-08-05T12:50:07.826Z,100407.83
2022-08-05T12:53:03.011Z,100402.77
2022-08-05T12:59:27.488Z,100397.75
2022-08-05T13:06:23.493Z,100396.48
2022-08-05T13:08:52.897Z,100391.48
2022-08-05T13:12:42.514Z,100387.42
2022-08-05T13:16:28.650Z,100389.98
2022-08-05T13:18:58.560Z,100385.02
2022-08-05T13:21:28.342Z,100381.39
2022-08-05T13:24:08.912Z,100381.36
2022-08-05T13:26:37.196Z,100374.33
2022-08-05T13:29:05.520Z,100370.68
2022-08-05T13:32:04.315Z,100369.33
2022-08-05T13:34:25.857Z,100372.83
2022-08-05T13:36:54.718Z,100367.88
2022-08-05T13:40:13.987Z,100369.37
2022-08-05T13:42:14.703Z,100367.90
2022-08-05T13:44:45.726Z,100363.49
2022-08-05T13:47:34.568Z,100358.41
2022-08-05T13:50:06.806Z,100352.15
2022-08-05T13:52:38.326Z,100348.08
2022-08-05T13:55:07.524Z,100352.11
2022-08-05T13:57:49.016Z,100349.11
2022-08-05T14:00:26.894Z,100343.70
2022-08-05T14:02:57.298Z,100335.60
2022-08-05T14:05:48.129Z,100335.59
2022-08-05T14:08:20.077Z,100336.88
2022-08-05T14:10:49.716Z,100340.85
2022-08-05T14:13:17.736Z,100339.14
2022-08-05T14:16:07.367Z,100337.04
2022-08-05T14:18:37.952Z,100337.72
2022-08-05T14:22:07.490Z,100333.19
2022-08-05T14:23:54.346Z,100335.72
2022-08-05T14:26:38.453Z,100318.62
2022-08-05T14:29:10.024Z,100319.70
2022-08-05T14:32:02.770Z,100329.02
2022-08-05T14:34:36.090Z,100327.05
2022-08-05T14:37:05.086Z,100325.99
2022-08-05T14:39:49.637Z,100314.41
2022-08-05T14:42:22.517Z,100325.40
2022-08-05T14:44:53.540Z,100328.27
2022-08-05T14:48:03.339Z,100331.23
2022-08-05T14:50:18.082Z,100327.88
2022-08-05T14:52:53.552Z,100330.23
2022-08-05T14:55:38.777Z,100329.30
2022-08-05T14:58:12.206Z,100315.73
2022-08-05T15:00:58.577Z,100319.95
2022-08-05T15:03:33.746Z,100327.91
2022-08-05T15:06:15.082Z,100328.25
2022-08-05T15:09:01.124Z,100328.57
2022-08-05T15:11:51.956Z,100326.05
2022-08-05T15:14:35.066Z,100323.29
2022-08-05T15:17:44.554Z,100316.70
2022-08-05T15:19:59.381Z,100311.94
2022-08-05T15:22:28.182Z,100313.06
2022-08-05T15:24:59.883Z,100310.54
2022-08-05T15:27:32.284Z,100307.13
2022-08-05T15:30:04.924Z,100307.52
2022-08-05T15:32:33.092Z,100290.95
2022-08-05T15:35:09.876Z,100294.95
2022-08-05T15:38:32.613Z,100297.31
2022-08-05T15:40:58.187Z,100296.05
2022-08-05T15:43:22.009Z,100287.50
2022-08-05T15:46:00.050Z,100285.21
2022-08-05T15:48:30.215Z,100284.09
2022-08-05T15:51:03.626Z,100278.26
2022-08-05T15:53:38.407Z,100283.86
2022-08-05T15:56:20.260Z,100284.71
2022-08-05T15:58:49.024Z,100284.63
2022-08-05T16:01:20.177Z,100284.10
2022-08-05T16:04:00.104Z,100283.18
2022-08-05T16:06:28.082Z,100278.88
2022-08-05T16:08:55.986Z,100281.32
2022-08-05T16:11:42.938Z,100278.36
2022-08-05T16:14:17.129Z,100279.52
2022-08-05T16:16:47.038Z,100276.50
2022-08-05T16:19:25.243Z,100279.56
2022-08-05T16:22:04.603Z,100277.80
2022-08-05T16:24:40.260Z,100275.48
2022-08-05T16:27:16.421Z,100276.98
2022-08-05T16:29:50.274Z,100276.34
2022-08-05T16:32:23.654Z,100273.27
2022-08-05T16:34:59.031Z,100274.46
2022-08-05T16:38:16.147Z,100268.86
2022-08-05T16:40:28.549Z,100269.01
2022-08-05T16:42:57.378Z,100271.13
2022-08-05T16:46:04.729Z,100274.88
2022-08-05T16:48:25.183Z,100269.80
2022-08-05T16:50:54.832Z,100267.11
2022-08-05T16:53:32.577Z,100268.05
2022-08-05T16:56:11.846Z,100268.45
2022-08-05T16:58:40.866Z,100265.33
2022-08-05T17:01:10.604Z,100258.05
2022-08-05T17:03:38.936Z,100270.02
2022-08-05T17:06:07.544Z,100271.38
2022-08-05T17:08:52.074Z,100269.44
2022-08-05T17:11:25.363Z,100267.36
2022-08-05T17:14:00.496Z,100268.52
2022-08-05T17:16:36.526Z,100266.34
2022-08-05T17:19:09.708Z,100262.86
2022-08-05T17:21:39.525Z,100266.89
2022-08-05T17:24:19.428Z,100267.13
2022-08-05T17:26:58.452Z,100269.54
2022-08-05T17:29:33.565Z,100271.47
2022-08-05T17:32:17.268Z,100269.20
2022-08-05T17:34:48.185Z,100263.09
2022-08-05T17:37:40.463Z,100277.92
2022-08-05T17:40:12.430Z,100278.11
2022-08-05T17:42:50.911Z,100281.18
2022-08-05T17:45:22.140Z,100287.63
2022-08-05T17:47:55.812Z,100289.13
2022-08-05T17:50:30.284Z,100289.80
2022-08-05T17:53:04.536Z,100288.58
2022-08-05T17:55:34.287Z,100290.52
2022-08-05T17:58:13.067Z,100290.66
2022-08-05T18:00:47.438Z,100288.70
2022-08-05T18:03:58.376Z,100286.48
2022-08-05T18:06:12.320Z,100273.17
2022-08-05T18:08:52.182Z,100283.77
2022-08-05T18:11:24.579Z,100277.91
2022-08-05T18:13:59.797Z,100285.33
2022-08-05T18:16:27.770Z,100281.53
2022-08-05T18:18:57.378Z,100284.69
2022-08-05T18:21:26.490Z,100287.21
2022-08-05T18:24:14.477Z,100283.64
2022-08-05T18:26:43.833Z,100282.24
2022-08-05T18:29:11.863Z,100282.68
2022-08-05T18:31:44.994Z,100273.70
2022-08-05T18:34:14.971Z,100284.76
2022-08-05T18:36:54.342Z,100279.26
2022-08-05T18:40:31.814Z,100270.04
2022-08-05T18:42:11.372Z,100277.02
2022-08-05T18:44:49.166Z,100274.98
2022-08-05T18:47:26.862Z,100280.23
2022-08-05T18:50:15.579Z,100282.48
2022-08-05T18:52:51.217Z,100280.45
2022-08-05T18:55:22.387Z,100285.42
2022-08-05T18:57:53.295Z,100286.76
2022-08-05T19:00:28.774Z,100280.91
2022-08-05T19:03:03.547Z,100284.80
2022-08-05T19:06:11.128Z,100288.88
2022-08-05T19:08:30.591Z,100288.90
2022-08-05T19:11:02.728Z,100286.39
2022-08-05T19:13:36.026Z,100289.52
2022-08-05T19:16:22.027Z,100291.27
2022-08-05T19:18:56.766Z,100297.48
2022-08-05T19:21:27.589Z,100297.46
2022-08-05T19:24:06.626Z,100305.55
2022-08-05T19:26:43.774Z,100304.35
2022-08-05T19:29:26.803Z,100304.42
2022-08-05T19:32:08.774Z,100306.91
2022-08-05T19:34:40.389Z,100302.54
2022-08-05T19:37:10.140Z,100303.74
2022-08-05T19:39:45.608Z,100298.95
2022-08-05T19:42:35.545Z,100299.58
2022-08-05T19:45:05.549Z,100297.04
2022-08-05T19:47:37.994Z,100306.02
2022-08-05T19:50:07.620Z,100308.14
2022-08-05T19:52:39.301Z,100308.98
2022-08-05T19:56:13.828Z,100294.45
2022-08-05T19:58:10.379Z,100310.38
2022-08-05T20:00:44.497Z,100309.59
2022-08-05T20:03:12.494Z,100306.70
2022-08-05T20:05:49.864Z,100302.36
2022-08-05T20:08:20.287Z,100302.00
2022-08-05T20:10:49.678Z,100300.15
2022-08-05T20:13:30.272Z,100297.48
2022-08-05T20:16:12.709Z,100300.43
2022-08-05T20:18:55.375Z,100296.39
2022-08-05T20:21:25.715Z,100297.70
2022-08-05T20:23:53.663Z,100296.93
2022-08-05T20:26:27.445Z,100291.30
2022-08-05T20:28:57.513Z,100293.13
2022-08-05T20:31:42.077Z,100292.12
2022-08-05T20:34:17.615Z,100296.14
2022-08-05T20:36:45.608Z,100296.86
2022-08-05T20:39:16.794Z,100295.76
2022-08-05T20:41:47.829Z,100295.58
2022-08-05T20:44:30.456Z,100287.11
2022-08-05T20:47:03.455Z,100301.50
2022-08-05T20:49:33.174Z,100301.39
2022-08-05T20:52:08.768Z,100304.08
2022-08-05T20:54:55.241Z,100300.90
2022-08-05T20:57:43.674Z,100303.14
2022-08-05T21:00:40.459Z,100305.52
2022-08-05T21:03:06.727Z,100301.10
2022-08-05T21:05:53.908Z,100303.67
2022-08-05T21:08:26.631Z,100303.33
2022-08-05T21:11:15.097Z,100300.95
2022-08-05T21:14:06.117Z,100299.84
2022-08-05T21:16:35.713Z,100307.02
2022-08-05T21:19:04.741Z,100311.20
2022-08-05T21:21:44.522Z,100313.38
2022-08-05T21:24:31.763Z,100313.34
2022-08-05T21:27:00.148Z,100311.99
2022-08-05T21:29:31.885Z,100314.51
2022-08-05T21:32:06.984Z,100317.61
2022-08-05T21:35:06.716Z,100318.85
2022-08-05T21:37:41.454Z,100324.92
2022-08-05T21:40:13.089Z,100327.03
2022-08-05T21:42:45.639Z,100322.83
2022-08-05T21:45:51.849Z,100316.73
2022-08-05T21:48:25.935Z,100318.58
2022-08-05T21:50:54.457Z,100318.27
2022-08-05T21:53:27.503Z,100317.78
2022-08-05T21:56:16.210Z,100312.95
2022-08-05T21:58:56.905Z,100313.77
2022-08-05T22:01:26.718Z,100311.97
2022-08-05T22:04:13.318Z,100314.70
2022-08-05T22:06:42.305Z,100312.44
2022-08-05T22:09:21.460Z,100306.35
2022-08-05T22:11:50.527Z,100318.23
2022-08-05T22:14:35.696Z,100314.58
2022-08-05T22:17:07.231Z,100314.23
2022-08-05T22:20:01.495Z,100317.09
2022-08-05T22:22:26.924Z,100303.27
2022-08-05T22:25:21.645Z,100315.08
2022-08-05T22:28:09.336Z,100314.80
2022-08-05T22:30:44.031Z,100311.56
2022-08-05T22:33:56.594Z,100308.36
2022-08-05T22:36:15.185Z,100309.45
2022-08-05T22:38:48.215Z,100309.59
2022-08-05T22:41:26.307Z,100306.06
2022-08-05T22:44:08.598Z,100295.20
2022-08-05T22:46:39.468Z,100306.69
2022-08-05T22:49:23.008Z,100301.66
2022-08-05T22:52:06.568Z,100287.98
2022-08-05T22:54:40.667Z,100300.61
2022-08-05T22:57:24.966Z,100301.81
2022-08-05T22:59:54.537Z,100302.13
2022-08-05T23:02:29.421Z,100295.56
2022-08-05T23:05:01.978Z,100294.01
2022-08-05T23:07:35.742Z,100293.96
2022-08-05T23:10:20.274Z,100300.14
2022-08-05T23:12:51.730Z,100299.83
2022-08-05T23:15:29.829Z,100298.21
2022-08-05T23:18:06.050Z,100295.88
2022-08-05T23:20:40.501Z,100300.46
2022-08-05T23:23:11.457Z,100301.05
2022-08-05T23:25:52.144Z,100304.02
2022-08-05T23:28:28.880Z,100302.77
2022-08-05T23:31:16.177Z,100305.09
2022-08-05T23:34:03.326Z,100306.59
2022-08-05T23:36:39.912Z,100311.95
2022-08-05T23:39:17.202Z,100312.41
2022-08-05T23:41:52.685Z,100307.15
2022-08-05T23:44:31.094Z,100313.74
2022-08-05T23:47:02.521Z,100319.80
2022-08-05T23:49:45.556Z,100322.33
2022-08-05T23:52:32.306Z,100330.65
2022-08-05T23:55:07.207Z,100345.59
2022-08-05T23:57:37.260Z,100355.20
